Burrton, Kansas
Current Conditions -  °F | °C
As of 10:11 PM on Wednesday 17 Dec 2014 (Local Time) from KHUT Reporting Station
Light Snow Light Snow  
Wind Chill: -5°   Ceiling: 2500
Heat Index: -1°   Visibility: 1.7mi
Dew Point: -3°   Wind: 7mph
Humidity: 88%   Direction: 100°E
Pressure: 30.17"   Gusts: NA
Location:  38.02°N, 97.67°W
Report Text: KHUT 180411Z 10006KT 1 3/4SM -SN BR FEW006 OVC025 M01/M03 A3017 RMK AO2 P0000 T10111028
Loading
Personal Weather Stations






























Interactive Weather Map New forecast layout! Learn more

10-Day Weather Forecast

Advertisements
Track Severe Weather on mobile